Аэропорт: Хатанга. Хатанга

ICAO: UOHH

METAR:
2013/07/19 07:00
UOHH 190700Z 26003MPS 9999 FEW033 SCT/// 26/11 Q1020 NOSIG RMK QFE759 24090060
METAR:
2013/07/19 06:21
TAF UOHH 190450Z 1906/2006 26003G08MPS 9999 SCT025 SCT070